Tiempo atmosférico en la estación meteorológica de Fuentesauco, Zamora (811 m.)



Fecha
DESCASC
Temp. máxima en grados centígrados (hora)
DESCASC
Temp. mínima en grados centígrados (hora)
DESCASC
Temp. media en grados centígrados
DESCASC
Racha de viento máxima en m/sg (hora)
DESCASC
Velocidad máxima media en intervalos de 10 minutos(hora)
DESCASC
Precipitaciones diarias en mm
DESCASC
Precipitaciones de 00:00 a 06:00 en mm
DESCASC
Precipitaciones de 06:00 a 12:00 en mm
DESCASC
Precipitaciones de 12:00 a 18:00 en mm
DESCASC
Precipitaciones de 18:00 a 24:00 en mm
DESCASC
19-04-2018 21.8 (17:10) 9.7 (07:50) 15.7 10.28 (14:40) 6.67 (15:30) 0 0 0 0 0
18-04-2018 22.3 (17:10) 6.3 (07:40) 14.3 5.28 (17:40) 2.5 (15:40) 0 0 0 0 0
17-04-2018 20 (19:00) 5.1 (06:20) 12.5 5.83 (17:40) 2.22 (12:40) 0 0 0 0 0
16-04-2018 13.6 (18:00) 2.4 (07:10) 8 7.22 (03:20) 4.72 (02:30) 0 0 0 0 0
15-04-2018 13.1 (15:40) 5.9 (00:00) 9.5 9.72 (07:40) 6.94 (07:20) 6.4 0.4 0 0.4 5.6
14-04-2018 14.4 (18:00) 3.9 (00:00) 9.1 8.61 (18:40) 5.28 (18:00) 0 0 0 0 0
13-04-2018 10.7 (19:00) 4.4 (00:00) 7.5 6.67 (19:50) 4.44 (19:50) 11.4 1.2 1.8 1.6 6.8
12-04-2018 10.5 (13:30) 4 (00:00) 7.3 11.11 (15:10) 8.61 (15:30) 8.2 0 0 0.4 7.8
11-04-2018 10.5 (16:40) 0.3 (00:00) 5.4 14.17 (18:50) 8.61 (19:40) 0.6 0.6 0 0 0
10-04-2018 7.2 (14:50) 0.7 (00:00) 3.9 18.33 (08:50) 13.06 (09:00) 14.4 0.4 7.6 4.8 1.6
09-04-2018 8 (18:40) 2.3 (00:00) 5.1 10.56 (23:10) 7.22 (23:10) 1.2 0.6 0 0.2 0.4
08-04-2018 12 (16:00) 3.4 (00:00) 7.7 13.61 (20:50) 8.61 (20:50) 2 0 0 1.2 0.8
07-04-2018 11.9 (17:20) 4.2 (00:00) 8 9.17 (14:40) 6.11 (02:30) 5.6 0.2 0.2 0 5.2
06-04-2018 18.4 (16:10) 5.7 (00:00) 12 14.44 (19:20) 10.28 (19:10) 1 0 0 0 1
05-04-2018 16.8 (18:40) 2 (00:00) 9.4 7.22 (18:40) 4.72 (18:40) 0 0 0 0 0
04-04-2018 12.2 (16:00) 5.4 (00:00) 8.8 16.67 (14:40) 11.11 (11:10) 1 0.8 0 0.2 0
03-04-2018 13.5 (16:40) 6.1 (00:00) 9.8 21.67 (14:50) 15 (14:50) 3.6 0 1.4 0.2 2
02-04-2018 15.3 (15:10) 8.9 (00:00) 12.1 16.39 (14:40) 10.83 (13:40) 0.4 0 0 0 0.4
01-04-2018 17.3 (18:10) 3.9 (00:00) 10.6 6.94 (18:40) 4.72 (19:20) 0 0 0 0 0
31-03-2018 10.7 (17:50) 2 (00:00) 6.3 16.39 (03:00) 10.83 (02:40) 0 0 0 0 0
30-03-2018 8.4 (15:20) 0.2 (00:00) 4.3 23.61 (18:40) 13.89 (00:50) 5.6 0.8 0 0.8 4
29-03-2018 10.8 (18:10) 2.7 (00:00) 6.8 17.5 (23:50) 13.06 (23:50) 0 0 0 0 0
28-03-2018 14.1 (17:20) 4.7 (00:00) 9.4 13.06 (12:20) 8.89 (13:20) 0 0 0 0 0
27-03-2018 17.9 (16:40) 4.5 (00:00) 11.2 8.33 (19:00) 4.72 (19:00) 0 0 0 0 0
26-03-2018 13 (19:20) -0.8 (-00:0) 6.1 7.22 (18:20) 5 (19:50) 0 0 0 0 0
25-03-2018 10.8 (15:30) 2.6 (00:00) 6.7 12.5 (00:20) 9.17 (00:10) 0.4 0.2 0 0 0.2
24-03-2018 8.8 (15:40) 1 (00:00) 4.9 21.94 (13:30) 15 (13:30) 0 0 0 0 0
23-03-2018 11.3 (16:00) 2.9 (00:00) 7.1 23.89 (22:50) 12.78 (22:50) 2 0 0 0 2

Gráficas

Temp. máximas Temp. mínimas Temp. medias Precipitaciones Rachas de viento máximas Velocidades máximas media en intervalos de 10 minutos

Datos horarios

Fecha y hora oficial Temperatura (ºC) Velocidad del viento (km/h) Dirección del viento Racha (km/h) Dirección de racha Precipitación (mm) Presión (hPa) Tendencia (hPa) Humedad (%)
2018-04-21 23:00:00 11.7 2 Oeste 9 Norte 0 -- -- 84
2018-04-21 22:00:00 12.1 0 Calma 17 Noroeste 0 -- -- 84
2018-04-21 21:00:00 13.5 13 Oeste 27 Oeste 0 -- -- 80
2018-04-21 20:00:00 15.7 10 Noroeste 17 Oeste 0 -- -- 65
2018-04-21 19:00:00 17.1 8 Noroeste 12 Oeste 0 -- -- 60
2018-04-21 18:00:00 16.7 10 Nordeste 22 Sudeste 0 -- -- 61
2018-04-21 17:00:00 16.8 14 Sudeste 31 Sudeste 0 -- -- 55
2018-04-21 16:00:00 15.9 19 Sudeste 37 Sudeste 0 -- -- 58
2018-04-21 15:00:00 14.5 16 Nordeste 31 Nordeste 0 -- -- 67
2018-04-21 14:00:00 14.2 18 Este 28 Nordeste 0 -- -- 71
2018-04-21 13:00:00 13.9 11 Nordeste 14 Nordeste 0 -- -- 75
2018-04-21 12:00:00 13.5 5 Sudeste 14 Sudeste 0 -- -- 72
2018-04-21 11:00:00 12.8 7 Sudeste 18 Sudeste 0 -- -- 74
2018-04-21 10:00:00 11.6 8 Este 14 Este 0 -- -- 80
2018-04-21 09:00:00 9.4 3 Nordeste 6 Sudoeste 0 -- -- 88
2018-04-21 08:00:00 8 6 Este 13 Este 0 -- -- 88
2018-04-21 07:00:00 8.8 4 Nordeste 21 Sudeste 0 -- -- 83
2018-04-21 06:00:00 11.1 12 Sudeste 27 Sudeste 0 -- -- 76
2018-04-21 05:00:00 11.6 15 Sudeste 27 Sudeste 0 -- -- 75
2018-04-21 04:00:00 11.3 19 Sudeste 28 Sudeste 0 -- -- 76
2018-04-21 03:00:00 11.5 20 Sudeste 27 Sudeste 0 -- -- 75
2018-04-21 02:00:00 11.5 18 Sudeste 26 Sudeste 0 -- -- 74
2018-04-21 01:00:00 12.1 19 Sudeste 24 Sudeste 0 -- -- 70
2018-04-21 00:00:00 13 15 Sudeste 21 Sudeste 0 -- -- 65
2018-04-20 23:00:00 14 17 Sudeste 30 Sudeste 0 -- -- 62
2018-04-20 22:00:00 15.4 20 Sudeste 30 Sudeste 0 -- -- 55
2018-04-20 21:00:00 16.4 15 Sudeste 30 Sudeste 0 -- -- 53
2018-04-20 20:00:00 18.1 25 Sudeste 38 Sudeste 0 -- -- 46
2018-04-20 19:00:00 18.6 24 Sudeste 58 Sudeste 0 -- -- 45
2018-04-20 18:00:00 18.7 30 Sudeste 43 Sudeste 0 -- -- 44
2018-04-20 17:00:00 19 24 Sudeste 41 Este 0 -- -- 42
2018-04-20 16:00:00 18.8 23 Sudeste 37 Este 0 -- -- 47
2018-04-20 15:00:00 18.8 18 Este 36 Este 0 -- -- 49
2018-04-20 14:00:00 17.8 17 Este 39 Este 0 -- -- 54
2018-04-20 13:00:00 16.8 21 Este 39 Este 0 -- -- 54
2018-04-20 12:00:00 15.6 23 Este 41 Sudeste 0 -- -- 59
2018-04-20 11:00:00 14.5 28 Sudeste 39 Sudeste 0 -- -- 63
2018-04-20 10:00:00 13.3 23 Sudeste 40 Sudeste 0 -- -- 68
2018-04-20 09:00:00 11.6 13 Este 30 Sudeste 0 -- -- 74
2018-04-20 08:00:00 10.4 22 Sudeste 32 Sudeste 0 -- -- 74
2018-04-20 07:00:00 11 26 Sudeste 37 Sudeste 0 -- -- 69
2018-04-20 06:00:00 11.3 22 Sudeste 33 Sudeste 0 -- -- 70
2018-04-20 05:00:00 11.8 22 Sudeste 35 Sudeste 0 -- -- 69
2018-04-20 04:00:00 12.4 26 Sudeste 37 Sudeste 0 -- -- 67
2018-04-20 03:00:00 12.5 21 Sudeste 40 Sudeste 0 -- -- 68
2018-04-20 02:00:00 12.2 13 Sudeste 19 Sudeste 0 -- -- 69
2018-04-20 01:00:00 14.1 15 Sudeste 21 Sudeste 0 -- -- 55
2018-04-20 00:00:00 13.9 13 Sur 22 Sudeste 0 -- -- 58
2018-04-19 23:00:00 15.3 16 Sudeste 23 Sudeste 0 -- -- 54
2018-04-19 22:00:00 16.1 17 Sudeste 22 Sudeste 0 -- -- 52
2018-04-19 21:00:00 18 12 Sudeste 21 Sudeste 0 -- -- 49
2018-04-19 20:00:00 20.3 15 Sudeste 27 Sudeste 0 -- -- 41
2018-04-19 19:00:00 21.2 19 Sudeste 32 Este 0 -- -- 36
2018-04-19 18:00:00 21.6 20 Sudeste 32 Este 0 -- -- 37
2018-04-19 17:00:00 21.7 17 Sudeste 36 Este 0 -- -- 36
2018-04-19 16:00:00 21.5 20 Sudeste 36 Sudeste 0 -- -- 36
2018-04-19 15:00:00 20.9 22 Sudeste 37 Sudeste 0 -- -- 35
2018-04-19 14:00:00 20.6 21 Sudeste 36 Sudeste 0 -- -- 40
2018-04-19 13:00:00 19.6 12 Este 22 Este 0 -- -- 46
2018-04-19 12:00:00 17.7 8 Sudeste 15 Sudeste 0 -- -- 54
2018-04-19 11:00:00 16.1 4 Este 11 Este 0 -- -- 63
2018-04-19 10:00:00 13.6 8 Este 13 Nordeste 0 -- -- 69
2018-04-19 09:00:00 12.3 5 Nordeste 9 Este 0 -- -- 76
2018-04-19 08:00:00 10.4 8 Sudeste 13 Sudeste 0 -- -- 74
2018-04-19 07:00:00 10.5 3 Sur 6 Sudeste 0 -- -- 74
2018-04-19 06:00:00 11.2 3 Sur 4 Sur 0 -- -- 79
2018-04-19 05:00:00 11.1 2 Sudoeste 7 Sudoeste 0 -- -- 80
2018-04-19 04:00:00 11.7 2 Sudoeste 9 Sudeste 0 -- -- 79
2018-04-19 03:00:00 12.6 6 Sudeste 12 Este 0 -- -- 76
2018-04-19 02:00:00 11.8 7 Sudoeste 12 Sudoeste 0 -- -- 82
2018-04-19 01:00:00 13 3 Sur 4 Sur 0 -- -- 76
2018-04-19 00:00:00 13.7 0 Calma 7 Nordeste 0 -- -- 73
2018-04-18 23:00:00 14.8 2 Este 6 Sur 0 -- -- 73
2018-04-18 22:00:00 16.2 5 Este 10 Este 0 -- -- 66
2018-04-18 21:00:00 19.1 8 Este 9 Este 0 -- -- 59
2018-04-18 20:00:00 21.6 6 Este 13 Este 0 -- -- 48
2018-04-18 19:00:00 21.9 6 Este 14 Este 0 -- -- 46
2018-04-18 18:00:00 21.7 9 Este 19 Nordeste 0 -- -- 47
2018-04-18 17:00:00 21.9 3 Este 13 Noroeste 0 -- -- 47
2018-04-18 16:00:00 21.9 9 Noroeste 18 Norte 0 -- -- 50
2018-04-18 15:00:00 20.9 6 Norte 15 Nordeste 0 -- -- 54
2018-04-18 14:00:00 19.6 5 Este 11 Nordeste 0 -- -- 55
2018-04-18 13:00:00 18 5 Norte 12 Noroeste 0 -- -- 62
2018-04-18 12:00:00 16 2 Norte 6 Norte 0 -- -- 64
2018-04-18 11:00:00 13.6 3 Norte 6 Noroeste 0 -- -- 73
2018-04-18 10:00:00 11.1 3 Noroeste 6 Nordeste 0 -- -- 81
2018-04-18 09:00:00 8.2 0 Calma 5 Sudoeste 0 -- -- 85
2018-04-18 08:00:00 6.5 0 Calma 3 Oeste 0 -- -- 86
2018-04-18 07:00:00 6.8 0 Calma 4 Sudoeste 0 -- -- 83
2018-04-18 06:00:00 7.4 0 Calma 9 Este 0 -- -- 83
2018-04-18 05:00:00 8.1 0 Calma 3 Sudoeste 0 -- -- 79
2018-04-18 04:00:00 8.5 0 Calma 3 Este 0 -- -- 80
2018-04-18 03:00:00 9.4 2 Sudoeste 4 Sudoeste 0 -- -- 75
2018-04-18 02:00:00 10.3 0 Calma 11 Este 0 -- -- 74
2018-04-18 01:00:00 10.6 3 Sur 4 Sudoeste 0 -- -- 75
2018-04-18 00:00:00 11.1 2 Sudoeste 4 Sur 0 -- -- 74
2018-04-17 23:00:00 12.3 0 Calma 3 Sudoeste 0 -- -- 72
2018-04-17 22:00:00 14.5 2 Sudoeste 9 Este 0 -- -- 62
2018-04-17 21:00:00 16.7 6 Este 11 Este 0 -- -- 56
2018-04-17 20:00:00 19 5 Sudeste 9 Este 0 -- -- 47
2018-04-17 19:00:00 20 3 Sudoeste 11 Sur 0 -- -- 40
2018-04-17 18:00:00 19.5 5 Sur 21 Oeste 0 -- -- 40
2018-04-17 17:00:00 18.8 7 Sudeste 15 Oeste 0 -- -- 44
2018-04-17 16:00:00 18.1 5 Sudeste 12 Sur 0 -- -- 49
2018-04-17 15:00:00 17.2 4 Este 13 Este 0 -- -- 54
2018-04-17 14:00:00 15.9 7 Sudeste 15 Sudeste 0 -- -- 60
2018-04-17 13:00:00 14.5 7 Sudeste 17 Sudeste 0 -- -- 65
2018-04-17 12:00:00 13.5 5 Sudeste 12 Sudeste 0 -- -- 68
2018-04-17 11:00:00 12.1 5 Sudoeste 10 Oeste 0 -- -- 72
2018-04-17 10:00:00 10.2 7 Sudoeste 11 Sudoeste 0 -- -- 82
2018-04-17 09:00:00 7.1 6 Sudoeste 9 Sudoeste 0 -- -- 92
2018-04-17 08:00:00 5.3 5 Sudoeste 8 Sudoeste 0 -- -- 92
2018-04-17 07:00:00 5.3 4 Sudoeste 9 Sudoeste 0 -- -- 92
2018-04-17 06:00:00 5.5 5 Sudoeste 8 Sudoeste 0 -- -- 89
2018-04-17 05:00:00 6.4 4 Sudoeste 8 Sudoeste 0 -- -- 88
2018-04-17 04:00:00 6.6 4 Sudoeste 8 Sudoeste 0 -- -- 87
2018-04-17 03:00:00 6.8 4 Sudoeste 8 Sudoeste 0 -- -- 85
2018-04-17 02:00:00 6.8 3 Sudoeste 8 Sudoeste 0 -- -- 81
2018-04-17 01:00:00 7 4 Sudoeste 6 Sur 0 -- -- 82
2018-04-17 00:00:00 7.4 0 Calma 3 Oeste 0 -- -- 82
2018-04-16 23:00:00 8.2 3 Sudoeste 7 Sudoeste 0 -- -- 81
2018-04-16 22:00:00 9.2 6 Sudoeste 11 Sur 0 -- -- 79
2018-04-16 21:00:00 11.4 7 Sur 16 Sudoeste 0 -- -- 69
2018-04-16 20:00:00 13.2 12 Sudoeste 18 Sudoeste 0 -- -- 57
2018-04-16 19:00:00 13.4 10 Sudoeste 21 Sudoeste 0 -- -- 58
2018-04-16 18:00:00 13.6 10 Sudoeste 23 Sudoeste 0 -- -- 53
2018-04-16 17:00:00 13 12 Oeste 20 Oeste 0 -- -- 53
2018-04-16 16:00:00 12.3 12 Oeste 21 Oeste 0 -- -- 62
2018-04-16 15:00:00 11.1 12 Oeste 25 Sudoeste 0 -- -- 61
2018-04-16 14:00:00 10.5 13 Sudoeste 22 Sudoeste 0 -- -- 64
2018-04-16 13:00:00 9.8 6 Sudoeste 23 Oeste 0 -- -- 67
2018-04-16 12:00:00 8.8 8 Noroeste 22 Oeste 0 -- -- 71
2018-04-16 11:00:00 7.5 14 Oeste 22 Oeste 0 -- -- 78
2018-04-16 10:00:00 5.9 14 Oeste 22 Sudoeste 0 -- -- 90
2018-04-16 09:00:00 4.2 14 Oeste 20 Sudoeste 0 -- -- 96
2018-04-16 08:00:00 2.4 9 Oeste 15 Oeste 0 -- -- 96
2018-04-16 07:00:00 2.6 6 Sudoeste 15 Oeste 0 -- -- 94
2018-04-16 06:00:00 3.4 9 Sudoeste 19 Oeste 0 -- -- 92
2018-04-16 05:00:00 4.4 14 Oeste 24 Oeste 0 -- -- 93
2018-04-16 04:00:00 4.7 15 Oeste 26 Oeste -- -- -- 92
2018-04-16 03:00:00 5.2 15 Oeste 24 Oeste 0 -- -- 91
2018-04-16 02:00:00 6 13 Oeste 20 Sudoeste 0 -- -- 93
2018-04-16 01:00:00 6.3 15 Sudoeste 22 Sudoeste 0 -- -- 94
2018-04-16 00:00:00 5.9 12 Sudoeste 21 Sudoeste 0 -- -- 92
2018-04-15 23:00:00 6.7 7 Sudoeste 33 Oeste 2.6 -- -- 90
2018-04-15 22:00:00 8 14 Oeste 24 Oeste 1.6 -- -- 93
2018-04-15 21:00:00 8.2 14 Oeste 21 Oeste 0.8 -- -- 91
2018-04-15 20:00:00 8.6 16 Oeste 30 Oeste 0.4 -- -- 88
2018-04-15 19:00:00 9.5 18 Noroeste 28 Noroeste 0.2 -- -- 90
2018-04-15 18:00:00 10.6 18 Oeste 26 Oeste 0.4 -- -- 91
2018-04-15 17:00:00 11.7 15 Oeste 31 Oeste 0 -- -- 86
2018-04-15 16:00:00 12.7 17 Sudoeste 31 Sudoeste 0 -- -- 82
2018-04-15 15:00:00 12.8 21 Sudoeste 29 Oeste 0 -- -- 79
2018-04-15 14:00:00 11.8 21 Oeste 31 Oeste 0 -- -- 82
2018-04-15 13:00:00 10.9 19 Oeste 31 Oeste 0 -- -- 93
2018-04-15 12:00:00 10.6 23 Sudoeste 31 Sudoeste 0 -- -- 91
2018-04-15 11:00:00 9.7 19 Sudoeste 27 Sudoeste 0 -- -- 94
2018-04-15 10:00:00 9.2 18 Sudoeste 28 Sudoeste 0 -- -- 95
2018-04-15 09:00:00 8.4 18 Sudoeste 27 Sudoeste 0 -- -- 94
2018-04-15 08:00:00 7.7 22 Sudoeste 35 Sudoeste 0 -- -- 95
2018-04-15 07:00:00 7.9 23 Sudoeste 33 Sudoeste 0 -- -- 92
2018-04-15 06:00:00 8.4 12 Sudoeste 22 Sudoeste 0 -- -- 92
2018-04-15 05:00:00 8.4 10 Sudoeste 18 Sudoeste 0.4 -- -- 91
2018-04-15 04:00:00 8.7 15 Sudoeste 21 Sudoeste 0 -- -- 89
2018-04-15 03:00:00 8.9 11 Sudoeste 20 Sudoeste 0 -- -- 87
2018-04-15 02:00:00 8.5 10 Sudoeste 17 Sudoeste 0 -- -- 89
2018-04-15 01:00:00 8.6 8 Sudoeste 14 Sudoeste 0 -- -- 87
2018-04-15 00:00:00 7.9 5 Sudoeste 8 Sudoeste 0 -- -- 85
2018-04-14 23:00:00 8.9 3 Sudoeste 5 Sudoeste 0 -- -- 82
2018-04-14 22:00:00 9.6 3 Sudoeste 6 Oeste 0 -- -- 80
2018-04-14 21:00:00 11.6 8 Oeste 19 Oeste 0 -- -- 68
2018-04-14 20:00:00 13.1 14 Oeste 25 Oeste 0 -- -- 61
2018-04-14 19:00:00 14.3 11 Oeste 31 Oeste 0 -- -- 54
2018-04-14 18:00:00 14.4 19 Oeste 28 Sudoeste 0 -- -- 58
2018-04-14 17:00:00 13.5 14 Oeste 23 Oeste 0 -- -- 62
2018-04-14 16:00:00 14 10 Sur 20 Sudoeste 0 -- -- 64
2018-04-14 15:00:00 12.8 10 Sur 18 Sur 0 -- -- 64
2018-04-14 14:00:00 10.9 6 Sudoeste 12 Sur 0 -- -- 73
2018-04-14 13:00:00 9.8 8 Sudoeste 17 Sudeste 0 -- -- 81
2018-04-14 12:00:00 9.9 9 Sudeste 16 Sudeste 0 -- -- 80
2018-04-14 11:00:00 10 4 Sur 9 Sudeste 0 -- -- 82
2018-04-14 10:00:00 8.8 4 Este 9 Sudeste 0 -- -- 90
2018-04-14 09:00:00 7.6 6 Este 10 Este 0 -- -- 96
2018-04-14 08:00:00 5.7 0 Calma 4 Sudoeste 0 -- -- 97
2018-04-14 07:00:00 5.5 0 Calma 2 Sudoeste 0 -- -- 97
2018-04-14 06:00:00 5.3 2 Sudoeste 3 Sudoeste 0 -- -- 97
2018-04-14 05:00:00 4.6 2 Sudoeste 4 Sudoeste 0 -- -- 96
2018-04-14 04:00:00 4.1 0 Calma 3 Sudoeste 0 -- -- 94
2018-04-14 03:00:00 4.7 0 Calma 4 Sur 0 -- -- 94
2018-04-14 02:00:00 5.5 0 Calma 6 Sudoeste 0 -- -- 92
2018-04-14 01:00:00 6.8 2 Sudoeste 5 Oeste 0 -- -- 93
2018-04-14 00:00:00 6.7 2 Oeste 4 Oeste 0.2 -- -- 93
2018-04-13 23:00:00 6.7 4 Este 20 Norte 3 -- -- 92
2018-04-13 22:00:00 7 15 Norte 23 Norte 2.6 -- -- 94
2018-04-13 21:00:00 7.8 16 Norte 23 Norte 0.2 -- -- 92
2018-04-13 20:00:00 8.4 11 Oeste 24 Noroeste 0.8 -- -- 85
2018-04-13 19:00:00 10.7 4 Oeste 12 Sudoeste 0 -- -- 73
2018-04-13 18:00:00 10.4 4 Oeste 14 Sudoeste 0 -- -- 76
2018-04-13 17:00:00 9 0 Calma 12 Sudoeste 0.6 -- -- 82
2018-04-13 16:00:00 8.1 7 Oeste 22 Oeste 0.8 -- -- 88
2018-04-13 15:00:00 7.6 12 Oeste 22 Oeste 0 -- -- 86
2018-04-13 14:00:00 7.3 14 Sudoeste 20 Oeste 0 -- -- 88
2018-04-13 13:00:00 6.3 13 Sudoeste 19 Sudoeste 0.2 -- -- 93
2018-04-13 12:00:00 5.8 13 Sudoeste 21 Sudoeste 0 -- -- 93
2018-04-13 11:00:00 5.9 12 Oeste 19 Oeste 0 -- -- 91
2018-04-13 10:00:00 5 12 Oeste 19 Oeste 0 -- -- 96
2018-04-13 09:00:00 4.6 7 Oeste 12 Oeste 0.2 -- -- 96
2018-04-13 08:00:00 4.5 5 Oeste 8 Oeste 0.8 -- -- 96
2018-04-13 07:00:00 4.5 3 Oeste 8 Oeste 0.8 -- -- 96
2018-04-13 06:00:00 4.5 8 Oeste 11 Oeste 0 -- -- 95
2018-04-13 05:00:00 4.5 5 Noroeste 11 Noroeste 0.4 -- -- 95
2018-04-13 04:00:00 4.6 4 Oeste 9 Noroeste 0 -- -- 95
2018-04-13 03:00:00 4.6 6 Sudoeste 18 Sudoeste 0.2 -- -- 94
2018-04-13 02:00:00 4.7 12 Sudoeste 18 Sudoeste 0.2 -- -- 93
2018-04-13 01:00:00 5 7 Sudoeste 17 Sudoeste 0.4 -- -- 93
2018-04-13 00:00:00 5.3 12 Sudoeste 19 Sudoeste 1.8 -- -- 91
2018-04-12 23:00:00 6 5 Oeste 13 Oeste 2.8 -- -- 94
2018-04-12 22:00:00 6.3 5 Noroeste 7 Noroeste 1.8 -- -- 93
2018-04-12 21:00:00 6.8 2 Norte 5 Sudoeste 0.6 -- -- 90
2018-04-12 20:00:00 6.9 4 Sudoeste 13 Sur 0.2 -- -- 89
2018-04-12 19:00:00 6.9 10 Sudoeste 26 Sudoeste 0.6 -- -- 88
2018-04-12 18:00:00 6.8 25 Sudoeste 38 Sudoeste 0.4 -- -- 88
2018-04-12 17:00:00 7.3 25 Sudoeste 38 Sudoeste 0 -- -- 87
2018-04-12 16:00:00 8.1 28 Sudoeste 40 Sudoeste 0 -- -- 84
2018-04-12 15:00:00 9.3 23 Sudoeste 32 Sudoeste 0 -- -- 73
2018-04-12 14:00:00 9.3 22 Sudoeste 32 Sudoeste 0 -- -- 67
2018-04-12 13:00:00 9.8 22 Sudoeste 31 Sur 0 -- -- 70
2018-04-12 12:00:00 8.2 11 Sur 25 Sur 0 -- -- 77
2018-04-12 11:00:00 7.3 17 Sudoeste 31 Sudoeste 0 -- -- 82
2018-04-12 10:00:00 6 21 Sudoeste 28 Sudoeste 0 -- -- 88
2018-04-12 09:00:00 4.9 19 Sudoeste 29 Sudoeste 0 -- -- 95
2018-04-12 08:00:00 4.2 18 Sudoeste 28 Sudoeste 0 -- -- 94
2018-04-12 07:00:00 4.1 12 Sudoeste 21 Sudoeste 0 -- -- 93
2018-04-12 06:00:00 4.2 17 Sudoeste 26 Sudoeste 0 -- -- 92
2018-04-12 05:00:00 4.4 16 Oeste 28 Oeste 0 -- -- 91
2018-04-12 04:00:00 4.1 17 Oeste 31 Oeste 0 -- -- 91
2018-04-12 03:00:00 4.4 14 Oeste 28 Oeste 0 -- -- 92
2018-04-12 02:00:00 4.9 18 Oeste 33 Oeste 0 -- -- 91
2018-04-12 01:00:00 5.2 22 Oeste 36 Oeste 0 -- -- 90
2018-04-12 00:00:00 5.4 24 Oeste 36 Oeste 0 -- -- 89
2018-04-11 23:00:00 6 23 Oeste 46 Oeste 0 -- -- 86
2018-04-11 22:00:00 7 22 Oeste 41 Oeste 0 -- -- 80
2018-04-11 21:00:00 7.8 23 Oeste 46 Oeste 0 -- -- 75
2018-04-11 20:00:00 8.9 31 Noroeste 50 Noroeste 0 -- -- 67
2018-04-11 19:00:00 9.6 27 Oeste 51 Oeste 0 -- -- 64
2018-04-11 18:00:00 9.7 25 Oeste 40 Oeste 0 -- -- 63
2018-04-11 17:00:00 10.4 24 Noroeste 41 Oeste 0 -- -- 57
2018-04-11 16:00:00 9.7 27 Oeste 38 Noroeste 0 -- -- 60
2018-04-11 15:00:00 9 24 Noroeste 44 Oeste 0 -- -- 60
2018-04-11 14:00:00 8.3 25 Noroeste 45 Oeste 0 -- -- 66
2018-04-11 13:00:00 7.4 23 Noroeste 40 Oeste 0 -- -- 70
2018-04-11 12:00:00 6.1 22 Oeste 33 Oeste 0 -- -- 69
2018-04-11 11:00:00 4.4 18 Oeste 31 Noroeste 0 -- -- 78
2018-04-11 10:00:00 3.1 17 Noroeste 25 Noroeste 0 -- -- 84
2018-04-11 09:00:00 0.8 14 Oeste 20 Oeste 0 -- -- 91
2018-04-11 08:00:00 0.3 12 Oeste 22 Oeste 0 -- -- 93
2018-04-11 07:00:00 0.7 14 Oeste 23 Noroeste 0 -- -- 92
2018-04-11 06:00:00 0.9 12 Noroeste 21 Noroeste 0 -- -- 95
2018-04-11 05:00:00 1.8 12 Noroeste 20 Noroeste 0 -- -- 97
2018-04-11 04:00:00 2 11 Noroeste 18 Noroeste 0 -- -- 97
2018-04-11 03:00:00 1.8 8 Norte 12 Noroeste 0 -- -- 97
2018-04-11 02:00:00 1.4 9 Norte 20 Noroeste 0 -- -- 97
2018-04-11 01:00:00 1.2 11 Noroeste 21 Oeste 0.6 -- -- 96
2018-04-11 00:00:00 1.2 14 Noroeste 24 Noroeste 0.8 -- -- 95
2018-04-10 23:00:00 1.1 8 Noroeste 30 Noroeste 0.8 -- -- 93
2018-04-10 22:00:00 4 14 Oeste 30 Oeste 0 -- -- 86
2018-04-10 21:00:00 3.4 5 Oeste 24 Oeste 0 -- -- 87
2018-04-10 20:00:00 4.5 15 Oeste 26 Oeste 0 -- -- 81
2018-04-10 19:00:00 4.6 19 Noroeste 27 Noroeste 0 -- -- 83
2018-04-10 18:00:00 3.4 12 Noroeste 60 Sudoeste 1.2 -- -- 94
2018-04-10 17:00:00 4 5 Sudoeste 13 Sudeste 1.6 -- -- 94
2018-04-10 16:00:00 2.1 7 Norte 38 Norte 2 -- -- 94
2018-04-10 15:00:00 4.9 32 Noroeste 44 Oeste 0 -- -- 82
2018-04-10 14:00:00 6.5 23 Sudoeste 31 Sudoeste 0 -- -- 82
2018-04-10 13:00:00 5.7 23 Sudoeste 33 Sudoeste 0 -- -- 89
2018-04-10 12:00:00 4 23 Sudoeste 31 Oeste 0.2 -- -- 93
2018-04-10 11:00:00 3.7 23 Oeste 49 Oeste 1 -- -- 92
2018-04-10 10:00:00 4.4 36 Oeste 64 Sudoeste 1.4 -- -- 91
2018-04-10 09:00:00 4.7 47 Sudoeste 66 Sudoeste 2.4 -- -- 91
2018-04-10 08:00:00 4.6 26 Sudoeste 51 Sudoeste 1.4 -- -- 92
2018-04-10 07:00:00 4.6 39 Sudoeste 52 Sudoeste 1.2 -- -- 91
2018-04-10 06:00:00 4.9 33 Sudoeste 49 Sudoeste 0.2 -- -- 91
2018-04-10 05:00:00 5.4 27 Sudoeste 45 Sudoeste 0.2 -- -- 93
2018-04-10 04:00:00 5.6 29 Sudoeste 41 Sudoeste 0 -- -- 92
2018-04-10 03:00:00 5.8 25 Sudoeste 32 Sudoeste 0 -- -- 92
2018-04-10 02:00:00 5.4 22 Sudoeste 32 Sudoeste 0 -- -- 93
2018-04-10 01:00:00 6 22 Sudoeste 35 Sudoeste 0 -- -- 91
2018-04-10 00:00:00 5.6 20 Sudoeste 38 Sudoeste 0 -- -- 92
2018-04-09 23:00:00 5.8 22 Sudoeste 35 Oeste 0 -- -- 90
2018-04-09 22:00:00 6.3 18 Sudoeste 31 Sudoeste 0.4 -- -- 90
2018-04-09 21:00:00 7.2 15 Sudoeste 25 Sudoeste 0 -- -- 83
2018-04-09 20:00:00 7.6 13 Oeste 27 Oeste 0 -- -- 79
2018-04-09 19:00:00 8 17 Oeste 26 Oeste 0 -- -- 73
2018-04-09 18:00:00 7.6 16 Oeste 24 Oeste 0 -- -- 76
2018-04-09 17:00:00 6.4 11 Oeste 28 Oeste 0.2 -- -- 81
2018-04-09 16:00:00 7.5 13 Sudoeste 30 Sudoeste 0 -- -- 80
2018-04-09 15:00:00 6 9 Oeste 19 Oeste 0 -- -- 84
2018-04-09 14:00:00 5.1 3 Oeste 12 Sudoeste 0 -- -- 80
2018-04-09 13:00:00 4.4 6 Sudoeste 15 Oeste 0 -- -- 82
2018-04-09 12:00:00 4 10 Oeste 20 Sudoeste 0 -- -- 86
2018-04-09 11:00:00 3.6 13 Sudoeste 17 Sudoeste 0 -- -- 88
2018-04-09 10:00:00 2.5 6 Sudoeste 12 Sudoeste 0 -- -- 93
2018-04-09 09:00:00 2.4 6 Sudoeste 14 Sudoeste 0 -- -- 95
2018-04-09 08:00:00 2.4 8 Sudoeste 18 Sudoeste 0 -- -- 94
2018-04-09 07:00:00 2.7 11 Sudoeste 18 Sudoeste 0 -- -- 94
2018-04-09 06:00:00 2.6 13 Sudoeste 20 Sudoeste 0 -- -- 93
2018-04-09 05:00:00 2.8 9 Sudoeste 15 Sudoeste 0 -- -- 93
2018-04-09 04:00:00 2.7 11 Sudoeste 21 Sudoeste 0.2 -- -- 93
2018-04-09 03:00:00 2.9 10 Sudoeste 26 Sudoeste 0.2 -- -- 92
2018-04-09 02:00:00 3.3 15 Sudoeste 22 Sudoeste 0 -- -- 92
2018-04-09 01:00:00 3.4 16 Sudoeste 29 Oeste 0.2 -- -- 91
2018-04-09 00:00:00 4.3 18 Oeste 36 Oeste 0.4 -- -- 90
2018-04-08 23:00:00 5.8 15 Sudoeste 34 Sudoeste 0.4 -- -- 89
2018-04-08 22:00:00 7 23 Sudoeste 33 Sudoeste 0 -- -- 81
2018-04-08 21:00:00 7.4 28 Oeste 49 Oeste 0 -- -- 80
2018-04-08 20:00:00 9 18 Sudoeste 48 Sudoeste 0 -- -- 75
2018-04-08 19:00:00 11 28 Sudoeste 38 Sudoeste 0 -- -- 67
2018-04-08 18:00:00 11.1 21 Sudoeste 37 Oeste 0 -- -- 70
2018-04-08 17:00:00 10.6 24 Sudoeste 45 Oeste 1.2 -- -- 73
2018-04-08 16:00:00 12 23 Sudoeste 41 Oeste 0 -- -- 63
2018-04-08 15:00:00 10.3 23 Oeste 45 Oeste 0 -- -- 70
2018-04-08 14:00:00 10 30 Oeste 44 Oeste 0 -- -- 70
2018-04-08 13:00:00 8.9 23 Oeste 35 Sudoeste 0 -- -- 77
2018-04-08 12:00:00 8.6 24 Oeste 36 Oeste 0 -- -- 77
2018-04-08 11:00:00 8.4 17 Oeste 29 Oeste 0 -- -- 76
2018-04-08 10:00:00 6.9 18 Oeste 26 Oeste 0 -- -- 87
2018-04-08 09:00:00 5.7 16 Oeste 22 Oeste 0 -- -- 93
2018-04-08 08:00:00 5.5 12 Oeste 20 Oeste 0 -- -- 92
2018-04-08 07:00:00 5.6 9 Oeste 17 Oeste 0 -- -- 93
2018-04-08 06:00:00 5.5 9 Oeste 14 Oeste 0 -- -- 94
2018-04-08 05:00:00 5.2 7 Oeste 10 Oeste 0 -- -- 94
2018-04-08 04:00:00 4.6 4 Sudoeste 9 Oeste 0 -- -- 95
2018-04-08 03:00:00 3.6 6 Sudoeste 12 Sudoeste 0 -- -- 95
2018-04-08 02:00:00 3.5 6 Sudoeste 15 Sudoeste 0 -- -- 93
2018-04-08 01:00:00 3.9 8 Sudoeste 14 Sudoeste 0 -- -- 92
2018-04-08 00:00:00 4.2 8 Sudoeste 13 Sudoeste 0 -- -- 89
2018-04-07 23:00:00 6 3 Sudoeste 8 Oeste 0 -- -- 84
2018-04-07 22:00:00 6.5 0 Calma 19 Oeste 0 -- -- 83
2018-04-07 21:00:00 8.5 15 Oeste 30 Oeste 0 -- -- 75
2018-04-07 20:00:00 8.9 3 Este 18 Sudeste 0.4 -- -- 77
2018-04-07 19:00:00 7 11 Sudeste 30 Sur 4.8 -- -- 82
2018-04-07 18:00:00 11.2 9 Sudoeste 18 Sudoeste 0 -- -- 62
2018-04-07 17:00:00 11.6 11 Sudoeste 19 Sudoeste 0 -- -- 60
2018-04-07 16:00:00 10.4 12 Sudoeste 25 Sudoeste 0 -- -- 68
2018-04-07 15:00:00 9.2 17 Sudoeste 33 Sudoeste 0 -- -- 71
2018-04-07 14:00:00 8.9 13 Oeste 24 Sudoeste 0 -- -- 73
2018-04-07 13:00:00 7.8 14 Sudoeste 24 Sudoeste 0 -- -- 79
2018-04-07 12:00:00 7.1 15 Sudoeste 21 Sudoeste 0 -- -- 82
2018-04-07 11:00:00 6.8 12 Sudoeste 17 Sudoeste 0 -- -- 85
2018-04-07 10:00:00 6.4 9 Oeste 16 Oeste 0 -- -- 91
2018-04-07 09:00:00 6.1 7 Oeste 12 Oeste 0.2 -- -- 91
2018-04-07 08:00:00 6 5 Oeste 10 Sudoeste 0 -- -- 87
2018-04-07 07:00:00 6.1 5 Sudoeste 17 Sudoeste 0 -- -- 91
2018-04-07 06:00:00 6.5 12 Sudoeste 21 Sudoeste 0 -- -- 91
2018-04-07 05:00:00 6.7 12 Sudoeste 19 Sudoeste 0 -- -- 89
2018-04-07 04:00:00 6.8 10 Sudoeste 24 Sudoeste 0 -- -- 90
2018-04-07 03:00:00 7.1 18 Sudoeste 28 Sudoeste 0 -- -- 87
2018-04-07 02:00:00 7.4 15 Sur 24 Sudoeste 0 -- -- 89
2018-04-07 01:00:00 7.3 19 Sudoeste 30 Sudoeste 0.2 -- -- 90
2018-04-07 00:00:00 7.2 18 Sudoeste 40 Sudoeste 0 -- -- 89
2018-04-06 23:00:00 8.2 24 Sudoeste 34 Oeste 0 -- -- 85
2018-04-06 22:00:00 8.3 23 Oeste 46 Oeste 0.2 -- -- 83
2018-04-06 21:00:00 10.1 21 Oeste 49 Sudoeste 0.8 -- -- 85
2018-04-06 20:00:00 15 26 Sudoeste 52 Sudoeste 0 -- -- 51
2018-04-06 19:00:00 16.5 32 Sudoeste 49 Sudoeste 0 -- -- 48
2018-04-06 18:00:00 18.2 30 Sudoeste 44 Sudoeste 0 -- -- 49
2018-04-06 17:00:00 17.7 23 Sur 43 Sudoeste 0 -- -- 47
2018-04-06 16:00:00 18.2 31 Sur 44 Sur 0 -- -- 47
2018-04-06 15:00:00 16.6 26 Sudoeste 40 Sudoeste 0 -- -- 51
2018-04-06 14:00:00 16.4 25 Sudoeste 46 Sudoeste 0 -- -- 49
2018-04-06 13:00:00 16 32 Sudoeste 49 Sur 0 -- -- 51
2018-04-06 12:00:00 15 11 Sudoeste 27 Sur 0 -- -- 56
2018-04-06 11:00:00 13.7 14 Sur 22 Sur 0 -- -- 59
2018-04-06 10:00:00 11.2 15 Sur 19 Sur 0 -- -- 67
2018-04-06 09:00:00 7.4 4 Oeste 20 Sur 0 -- -- 76
2018-04-06 08:00:00 7.1 19 Sur 22 Sur 0 -- -- 74
2018-04-06 07:00:00 6.4 4 Sudoeste 13 Sudoeste 0 -- -- 75
2018-04-06 06:00:00 7.7 10 Sudeste 17 Sudeste 0 -- -- 72
2018-04-06 05:00:00 7.1 4 Sudeste 6 Sudeste 0 -- -- 77
2018-04-06 04:00:00 7 4 Sur 8 Sudoeste 0 -- -- 80
2018-04-06 03:00:00 7.4 4 Sudoeste 12 Sur 0 -- -- 77
2018-04-06 02:00:00 7.7 5 Sur 8 Sur 0 -- -- 76
2018-04-06 01:00:00 7.9 5 Sur 10 Sudoeste 0 -- -- 74
2018-04-06 00:00:00 8.5 4 Sudoeste 13 Sudoeste 0 -- -- 72
2018-04-05 23:00:00 9.3 8 Sudoeste 15 Sur 0 -- -- 73
2018-04-05 22:00:00 10.9 13 Sur 15 Sur 0 -- -- 68
2018-04-05 21:00:00 13.4 9 Sur 13 Sudeste 0 -- -- 57
2018-04-05 20:00:00 15.8 7 Sur 20 Sur 0 -- -- 48
2018-04-05 19:00:00 16.7 12 Sur 26 Sur 0 -- -- 41
2018-04-05 18:00:00 16.3 11 Sudoeste 24 Sur 0 -- -- 36
2018-04-05 17:00:00 16.3 8 Sur 21 Sudoeste 0 -- -- 39
2018-04-05 16:00:00 14.9 4 Sur 17 Sur 0 -- -- 46
2018-04-05 15:00:00 13.7 5 Sudoeste 19 Sudoeste 0 -- -- 49
2018-04-05 14:00:00 12.3 6 Sur 15 Sudoeste 0 -- -- 49
2018-04-05 13:00:00 11 6 Sur 17 Sur 0 -- -- 62
2018-04-05 12:00:00 10 9 Sudeste 16 Sudeste 0 -- -- 68
2018-04-05 11:00:00 8.8 4 Sudeste 10 Sudeste 0 -- -- 77
2018-04-05 10:00:00 6.7 2 Sudeste 6 Sur 0 -- -- 93
2018-04-05 09:00:00 4.3 3 Sudeste 8 Sudeste 0 -- -- 95
2018-04-05 08:00:00 2 0 Calma 10 Sudoeste 0 -- -- 94
2018-04-05 07:00:00 2.5 5 Sudoeste 13 Sudoeste 0 -- -- 95
2018-04-05 06:00:00 2.6 5 Sudoeste 9 Sudoeste 0 -- -- 94
2018-04-05 05:00:00 2.9 5 Sudoeste 10 Sudoeste 0 -- -- 93
2018-04-05 04:00:00 2.9 0 Calma 13 Sudoeste 0 -- -- 90
2018-04-05 03:00:00 3.9 7 Sudoeste 22 Sudoeste 0 -- -- 90
2018-04-05 02:00:00 4.9 15 Sudoeste 21 Sudoeste 0 -- -- 89
2018-04-05 01:00:00 5.1 10 Sudoeste 20 Sudoeste 0 -- -- 85
2018-04-05 00:00:00 5.9 17 Oeste 27 Oeste 0 -- -- 83
2018-04-04 23:00:00 7.2 24 Oeste 31 Oeste 0 -- -- 78
2018-04-04 22:00:00 8 16 Oeste 37 Oeste 0 -- -- 77
2018-04-04 21:00:00 9.1 27 Oeste 45 Oeste 0 -- -- 73
2018-04-04 20:00:00 10.7 27 Oeste 46 Oeste 0 -- -- 68
2018-04-04 19:00:00 11.4 36 Oeste 50 Oeste 0 -- -- 67
2018-04-04 18:00:00 10.6 27 Oeste 50 Oeste 0.2 -- -- 76
2018-04-04 17:00:00 11.3 35 Sudoeste 53 Oeste 0 -- -- 74
2018-04-04 16:00:00 12.2 36 Oeste 53 Oeste 0 -- -- 64
2018-04-04 15:00:00 10.8 40 Sudoeste 60 Oeste 0 -- -- 73
2018-04-04 14:00:00 10.4 37 Sudoeste 53 Sudoeste 0 -- -- 76
2018-04-04 13:00:00 8.9 35 Sudoeste 57 Sudoeste 0 -- -- 83
2018-04-04 12:00:00 8.6 35 Sudoeste 55 Sudoeste 0 -- -- 80
2018-04-04 11:00:00 8 40 Sudoeste 51 Sudoeste 0 -- -- 84
2018-04-04 10:00:00 7.1 35 Sudoeste 51 Sudoeste 0 -- -- 87
2018-04-04 09:00:00 6.1 36 Sudoeste 51 Sudoeste 0 -- -- 88
2018-04-04 08:00:00 5.4 28 Sudoeste 45 Sudoeste 0 -- -- 88
2018-04-04 07:00:00 5.4 24 Sudoeste 43 Sudoeste 0 -- -- 89
2018-04-04 06:00:00 5.8 24 Sudoeste 43 Sudoeste 0 -- -- 89
2018-04-04 05:00:00 5.7 33 Sudoeste 49 Sudoeste 0 -- -- 88
2018-04-04 04:00:00 6 33 Sudoeste 48 Sudoeste 0.2 -- -- 86
2018-04-04 03:00:00 5.6 22 Oeste 39 Sudoeste 0.4 -- -- 91
2018-04-04 02:00:00 6.6 30 Sudoeste 50 Sudoeste 0.2 -- -- 85
2018-04-04 01:00:00 6.4 36 Sudoeste 50 Sudoeste 0 -- -- 83
2018-04-04 00:00:00 6.3 30 Sudoeste 49 Sudoeste 0 -- -- 86
2018-04-03 23:00:00 7 30 Sudoeste 44 Sudoeste 0 -- -- 81
2018-04-03 22:00:00 7.2 32 Sudoeste 46 Sudoeste 0 -- -- 85
2018-04-03 21:00:00 6.9 33 Sudoeste 50 Sudoeste 0 -- -- 84
2018-04-03 20:00:00 6.6 26 Sudoeste 54 Sudoeste 1.2 -- -- 89
2018-04-03 19:00:00 7.5 25 Sudoeste 46 Sudoeste 0.8 -- -- 89
2018-04-03 18:00:00 8.9 32 Oeste 71 Sudoeste 0 -- -- 82
2018-04-03 17:00:00 11.6 42 Sudoeste 69 Sudoeste 0 -- -- 64
2018-04-03 16:00:00 12.2 46 Sudoeste 73 Sudoeste 0 -- -- 62
2018-04-03 15:00:00 12.5 52 Sudoeste 78 Sudoeste 0 -- -- 61
2018-04-03 14:00:00 11.8 40 Sudoeste 58 Sudoeste 0 -- -- 78
2018-04-03 13:00:00 10 28 Sudoeste 44 Sudoeste 0.2 -- -- 87
2018-04-03 12:00:00 8.7 30 Sudoeste 47 Sudoeste 1 -- -- 85
2018-04-03 11:00:00 10.4 33 Sudoeste 50 Sudoeste 0 -- -- 74
2018-04-03 10:00:00 8.6 29 Sudoeste 42 Sudoeste 0 -- -- 83
2018-04-03 09:00:00 8 34 Sudoeste 47 Sudoeste 0 -- -- 87
2018-04-03 08:00:00 7.5 13 Sudoeste 35 Sudoeste 0.2 -- -- 91
2018-04-03 07:00:00 8.1 29 Sudoeste 39 Sudoeste 0.2 -- -- 88
2018-04-03 06:00:00 7.7 13 Sudoeste 22 Sudoeste 0 -- -- 91
2018-04-03 05:00:00 7.9 17 Sudoeste 26 Sudoeste 0 -- -- 89
2018-04-03 04:00:00 8 24 Sudoeste 34 Sudoeste 0 -- -- 88
2018-04-03 03:00:00 8.7 24 Sudoeste 37 Sudoeste 0 -- -- 83
2018-04-03 02:00:00 8.5 25 Sudoeste 35 Sur 0 -- -- 82
2018-04-03 01:00:00 9.1 25 Sudoeste 33 Sudoeste 0 -- -- 85
2018-04-03 00:00:00 9.1 21 Sudoeste 32 Sudoeste 0 -- -- 89
2018-04-02 23:00:00 10 23 Sudoeste 39 Sudoeste 0 -- -- 86
2018-04-02 22:00:00 10.2 14 Sudoeste 26 Sur 0 -- -- 88
2018-04-02 21:00:00 10 19 Sudoeste 26 Sudoeste 0 -- -- 89
2018-04-02 20:00:00 10.4 19 Sudoeste 41 Sudoeste 0.2 -- -- 88
2018-04-02 19:00:00 11 19 Sudoeste 29 Sudoeste 0.2 -- -- 83
2018-04-02 18:00:00 11.3 19 Oeste 45 Sudoeste 0 -- -- 83
2018-04-02 17:00:00 14.4 30 Sudoeste 49 Sudoeste 0 -- -- 58
2018-04-02 16:00:00 14.6 31 Sudoeste 52 Sudoeste 0 -- -- 54
2018-04-02 15:00:00 15.2 33 Sudoeste 59 Sudoeste 0 -- -- 52
2018-04-02 14:00:00 13.6 38 Sudoeste 52 Sudoeste 0 -- -- 58
2018-04-02 13:00:00 11.8 29 Sudoeste 46 Sudoeste 0 -- -- 64
2018-04-02 12:00:00 11 35 Sudoeste 51 Sudoeste 0 -- -- 68
2018-04-02 11:00:00 10.7 27 Sudoeste 34 Sudoeste 0 -- -- 70
2018-04-02 10:00:00 10 25 Sudoeste 37 Sur 0 -- -- 74
2018-04-02 09:00:00 9.2 21 Sur 29 Sur 0 -- -- 75
2018-04-02 08:00:00 9.3 19 Sudoeste 27 Sur 0 -- -- 72
2018-04-02 07:00:00 9.1 14 Sur 23 Sur 0 -- -- 72
2018-04-02 06:00:00 9.6 16 Sur 21 Sur 0 -- -- 71
2018-04-02 05:00:00 9.7 14 Sur 19 Sur 0 -- -- 72
2018-04-02 04:00:00 9.8 9 Sur 17 Sur 0 -- -- 73
2018-04-02 03:00:00 9.6 13 Sur 19 Sudeste 0 -- -- 75
2018-04-02 02:00:00 10.2 12 Sur 17 Sudoeste 0 -- -- 71
2018-04-02 01:00:00 10 6 Sudoeste 16 Sur 0 -- -- 73
2018-04-02 00:00:00 10.3 13 Sur 16 Sur 0 -- -- 72
2018-04-01 23:00:00 9.8 7 Sudoeste 12 Sudoeste 0 -- -- 75
2018-04-01 22:00:00 10.8 5 Sudoeste 17 Sur 0 -- -- 71
2018-04-01 21:00:00 12.5 11 Sudoeste 19 Sudoeste 0 -- -- 65
2018-04-01 20:00:00 14.8 12 Sudoeste 23 Sudoeste 0 -- -- 56
2018-04-01 19:00:00 16.8 12 Sudoeste 25 Sudoeste 0 -- -- 52
2018-04-01 18:00:00 17.2 9 Sudoeste 19 Sudoeste 0 -- -- 50
2018-04-01 17:00:00 16.7 8 Sur 21 Sur 0 -- -- 49
2018-04-01 16:00:00 15.7 5 Este 18 Sudeste 0 -- -- 52
2018-04-01 15:00:00 14.5 8 Sudeste 18 Sudeste 0 -- -- 53
2018-04-01 14:00:00 13.8 6 Este 13 Este 0 -- -- 55
2018-04-01 13:00:00 12.2 7 Este 13 Sudeste 0 -- -- 59
2018-04-01 12:00:00 9.8 6 Sur 17 Sudoeste 0 -- -- 67
2018-04-01 11:00:00 9.3 12 Sur 17 Sur 0 -- -- 67
2018-04-01 10:00:00 7.7 11 Sudeste 18 Sudeste 0 -- -- 74
2018-04-01 09:00:00 5 10 Sur 15 Sudeste 0 -- -- 85
2018-04-01 08:00:00 3.9 5 Sur 10 Sur 0 -- -- 85
2018-04-01 07:00:00 4.2 9 Sur 13 Sudoeste 0 -- -- 84
2018-04-01 06:00:00 5.1 9 Sudoeste 13 Sudoeste 0 -- -- 85
2018-04-01 05:00:00 5.6 6 Sudoeste 13 Sudoeste 0 -- -- 83
2018-04-01 04:00:00 6 8 Sudoeste 13 Sudoeste 0 -- -- 81
2018-04-01 03:00:00 6.3 5 Sudoeste 15 Sudoeste 0 -- -- 80
2018-04-01 02:00:00 6.3 10 Sudoeste 17 Sudoeste 0 -- -- 80
2018-04-01 01:00:00 6.2 10 Sudoeste 18 Sudoeste 0 -- -- 80
2018-04-01 00:00:00 5.9 9 Sudoeste 12 Sudoeste 0 -- -- 80
2018-03-31 23:00:00 5.4 3 Sudoeste 6 Sur 0 -- -- 72
2018-03-31 22:00:00 6.5 3 Sudoeste 14 Oeste 0 -- -- 71
2018-03-31 21:00:00 7.6 13 Oeste 27 Oeste 0 -- -- 59
2018-03-31 20:00:00 9.8 17 Oeste 31 Oeste 0 -- -- 48
2018-03-31 19:00:00 10.6 19 Oeste 34 Oeste 0 -- -- 48
2018-03-31 18:00:00 10.7 21 Oeste 38 Oeste 0 -- -- 47
2018-03-31 17:00:00 10.5 21 Oeste 40 Oeste 0 -- -- 47
2018-03-31 16:00:00 9.5 18 Oeste 38 Oeste 0 -- -- 54
2018-03-31 15:00:00 9.3 24 Oeste 45 Noroeste 0 -- -- 60
2018-03-31 14:00:00 8.1 25 Oeste 39 Oeste 0 -- -- 60
2018-03-31 13:00:00 7.2 25 Oeste 42 Oeste 0 -- -- 67
2018-03-31 12:00:00 5.9 23 Oeste 38 Oeste 0 -- -- 72
2018-03-31 11:00:00 5.4 23 Oeste 41 Oeste 0 -- -- 77
2018-03-31 10:00:00 3.9 25 Oeste 44 Oeste 0 -- -- 83
2018-03-31 09:00:00 2.8 21 Oeste 40 Oeste 0 -- -- 87
2018-03-31 08:00:00 2.4 25 Oeste 41 Oeste 0 -- -- 88
2018-03-31 07:00:00 2.3 21 Oeste 40 Sudoeste 0 -- -- 89
2018-03-31 06:00:00 2.1 29 Oeste 42 Oeste 0 -- -- 89
2018-03-31 05:00:00 2.1 26 Oeste 55 Oeste 0 -- -- 88
2018-03-31 04:00:00 2.1 36 Oeste 53 Oeste 0 -- -- 88
2018-03-31 03:00:00 2.2 37 Oeste 59 Oeste 0 -- -- 85
2018-03-31 02:00:00 2.2 30 Oeste 52 Oeste 0 -- -- 89
2018-03-31 01:00:00 2.2 36 Oeste 54 Oeste 0 -- -- 88
2018-03-31 00:00:00 2.3 35 Sudoeste 51 Oeste 0 -- -- 88
2018-03-30 23:00:00 2.5 34 Oeste 49 Oeste 0 -- -- 89
2018-03-30 22:00:00 2.2 29 Oeste 54 Oeste 1 -- -- 93
2018-03-30 21:00:00 2.7 27 Sudoeste 49 Sudoeste 0.6 -- -- 91
2018-03-30 20:00:00 2.5 26 Sudoeste 46 Sudoeste 0.2 -- -- 94
2018-03-30 19:00:00 1.7 31 Sudoeste 85 Sudoeste 2.2 -- -- 94
2018-03-30 18:00:00 3.3 25 Sudoeste 52 Oeste 0.6 -- -- 90
2018-03-30 17:00:00 4.5 36 Oeste 63 Sudoeste 0.2 -- -- 81
2018-03-30 16:00:00 8.3 38 Sudoeste 54 Sudoeste 0 -- -- 52
2018-03-30 15:00:00 7.1 34 Sudoeste 52 Sudoeste 0 -- -- 58
2018-03-30 14:00:00 6.9 37 Sudoeste 55 Sudoeste 0 -- -- 60
2018-03-30 13:00:00 5.5 37 Sudoeste 50 Sudoeste 0 -- -- 69
2018-03-30 12:00:00 4.6 30 Sudoeste 48 Oeste 0 -- -- 71
2018-03-30 11:00:00 3.7 25 Sudoeste 41 Sudoeste 0 -- -- 77
2018-03-30 10:00:00 1.9 21 Sudoeste 33 Oeste 0 -- -- 86
2018-03-30 09:00:00 0.5 18 Oeste 27 Oeste 0 -- -- 90
2018-03-30 08:00:00 0.4 16 Sudoeste 30 Sudoeste 0 -- -- 90
2018-03-30 07:00:00 0.8 18 Oeste 33 Oeste 0 -- -- 89
2018-03-30 06:00:00 1.6 21 Oeste 37 Oeste 0 -- -- 85
2018-03-30 05:00:00 2.2 28 Oeste 48 Oeste 0 -- -- 81
2018-03-30 04:00:00 3 36 Oeste 54 Oeste 0 -- -- 83
2018-03-30 03:00:00 3.7 38 Oeste 66 Sudoeste 0.6 -- -- 88
2018-03-30 02:00:00 4.8 37 Sudoeste 59 Sudoeste 0.2 -- -- 88
2018-03-30 01:00:00 4.7 45 Sudoeste 71 Sudoeste 0 -- -- 87
2018-03-30 00:00:00 6.1 43 Sudoeste 63 Sudoeste 0 -- -- 75
2018-03-29 23:00:00 6.9 31 Sudoeste 53 Sudoeste 0 -- -- 67
2018-03-29 22:00:00 6.8 20 Sudoeste 36 Sudoeste 0 -- -- 75
2018-03-29 21:00:00 7.8 25 Oeste 40 Sudoeste 0 -- -- 67
2018-03-29 20:00:00 9.1 30 Oeste 50 Sudoeste 0 -- -- 56
2018-03-29 19:00:00 9.8 30 Sudoeste 50 Sudoeste 0 -- -- 49
2018-03-29 18:00:00 10.6 33 Oeste 52 Oeste 0 -- -- 44
2018-03-29 17:00:00 9.7 30 Sudoeste 49 Oeste 0 -- -- 50
2018-03-29 16:00:00 10 28 Sudoeste 41 Sudoeste 0 -- -- 52
2018-03-29 15:00:00 8.7 27 Sudoeste 39 Sudoeste 0 -- -- 56
2018-03-29 14:00:00 8.4 24 Sudoeste 37 Sudoeste 0 -- -- 57
2018-03-29 13:00:00 7.3 21 Oeste 35 Oeste 0 -- -- 59
2018-03-29 12:00:00 6.3 14 Oeste 27 Oeste 0 -- -- 65
2018-03-29 11:00:00 5.3 15 Oeste 34 Oeste 0 -- -- 70
2018-03-29 10:00:00 4.4 24 Oeste 33 Oeste 0 -- -- 78
2018-03-29 09:00:00 3.6 8 Oeste 14 Sudoeste 0 -- -- 92
2018-03-29 08:00:00 2.7 6 Sudoeste 16 Oeste 0 -- -- 91
2018-03-29 07:00:00 4.2 10 Oeste 18 Oeste 0 -- -- 88
2018-03-29 06:00:00 5 13 Oeste 22 Oeste 0 -- -- 89
2018-03-29 05:00:00 5.5 9 Oeste 16 Oeste 0 -- -- 91
2018-03-29 04:00:00 6 11 Oeste 19 Oeste 0 -- -- 89
2018-03-29 03:00:00 6.4 12 Oeste 21 Oeste 0 -- -- 89
2018-03-29 02:00:00 7.3 17 Oeste 26 Oeste 0 -- -- 85
2018-03-29 01:00:00 8.2 12 Oeste 29 Oeste 0 -- -- 83
2018-03-29 00:00:00 9.2 17 Oeste 29 Oeste 0 -- -- 80
2018-03-28 23:00:00 9.6 14 Oeste 26 Oeste 0 -- -- 79
2018-03-28 22:00:00 9.8 15 Noroeste 28 Oeste 0 -- -- 80
2018-03-28 21:00:00 10.8 18 Oeste 29 Oeste 0 -- -- 72
2018-03-28 20:00:00 11.5 21 Oeste 35 Oeste 0 -- -- 68
2018-03-28 19:00:00 11.9 22 Oeste 37 Oeste 0 -- -- 65
2018-03-28 18:00:00 12.8 25 Oeste 39 Oeste 0 -- -- 61
2018-03-28 17:00:00 13.9 22 Oeste 38 Oeste 0 -- -- 62
2018-03-28 16:00:00 13.1 23 Oeste 36 Oeste 0 -- -- 61
2018-03-28 15:00:00 12.7 24 Oeste 40 Oeste 0 -- -- 63
2018-03-28 14:00:00 12.1 26 Oeste 43 Oeste 0 -- -- 61
2018-03-28 13:00:00 12 30 Oeste 47 Oeste 0 -- -- 56
2018-03-28 12:00:00 12.7 26 Oeste 39 Oeste 0 -- -- 45
2018-03-28 11:00:00 11.1 28 Sudoeste 40 Sudoeste 0 -- -- 48
2018-03-28 10:00:00 8.7 19 Sudoeste 29 Sudoeste 0 -- -- 62
2018-03-28 09:00:00 6.6 19 Sudoeste 31 Sudoeste 0 -- -- 73
2018-03-28 08:00:00 5.9 18 Sudoeste 28 Sudoeste 0 -- -- 78
2018-03-28 07:00:00 4.8 17 Sudoeste 24 Sudoeste 0 -- -- 85
2018-03-28 06:00:00 5.3 18 Sudoeste 23 Sudoeste 0 -- -- 75
2018-03-28 05:00:00 5.5 9 Sudoeste 22 Sudoeste 0 -- -- 68
2018-03-28 04:00:00 6 14 Sudoeste 19 Sudoeste 0 -- -- 67
2018-03-28 03:00:00 8.3 8 Oeste 24 Oeste 0 -- -- 54
2018-03-28 02:00:00 8.1 14 Oeste 19 Sudoeste 0 -- -- 64
2018-03-28 01:00:00 7.8 11 Sudoeste 15 Sudoeste 0 -- -- 66
2018-03-28 00:00:00 8.7 5 Sudoeste 12 Oeste 0 -- -- 61
2018-03-27 23:00:00 10 4 Oeste 13 Oeste 0 -- -- 55
2018-03-27 22:00:00 12.4 13 Oeste 23 Oeste 0 -- -- 44
2018-03-27 21:00:00 14.6 16 Oeste 23 Oeste 0 -- -- 45
2018-03-27 20:00:00 17.1 14 Oeste 22 Oeste 0 -- -- 46
2018-03-27 19:00:00 17.6 17 Oeste 30 Oeste 0 -- -- 51
2018-03-27 18:00:00 17.7 13 Oeste 23 Oeste 0 -- -- 51
2018-03-27 17:00:00 17.8 14 Noroeste 24 Oeste 0 -- -- 48
2018-03-27 16:00:00 17.3 11 Noroeste 23 Noroeste 0 -- -- 48
2018-03-27 15:00:00 16.4 12 Noroeste 27 Noroeste 0 -- -- 49
2018-03-27 14:00:00 15.4 11 Noroeste 23 Norte 0 -- -- 56
2018-03-27 13:00:00 13.2 9 Noroeste 17 Noroeste 0 -- -- 66
2018-03-27 12:00:00 11.4 6 Noroeste 16 Oeste 0 -- -- 71
2018-03-27 11:00:00 9 11 Oeste 19 Oeste 0 -- -- 82
2018-03-27 10:00:00 5.9 17 Oeste 21 Oeste 0 -- -- 96
2018-03-27 09:00:00 4.9 12 Sudoeste 17 Sudoeste 0 -- -- 95
2018-03-27 08:00:00 4.6 9 Sudoeste 22 Sudoeste 0 -- -- 95
2018-03-27 07:00:00 4.8 11 Sudoeste 23 Sudoeste 0 -- -- 93
2018-03-27 06:00:00 5.2 14 Sudoeste 21 Sudoeste 0 -- -- 92
2018-03-27 05:00:00 5.2 10 Sudoeste 15 Sudoeste 0 -- -- 90
2018-03-27 04:00:00 6.3 12 Oeste 20 Sudoeste 0 -- -- 89
2018-03-27 03:00:00 6.1 5 Sur 19 Oeste 0 -- -- 87
2018-03-27 02:00:00 7.3 9 Oeste 22 Oeste 0 -- -- 81
2018-03-27 01:00:00 8.3 13 Oeste 22 Noroeste 0 -- -- 76
2018-03-27 00:00:00 9.6 9 Oeste 14 Oeste 0 -- -- 73
2018-03-26 23:00:00 9.9 5 Oeste 8 Oeste 0 -- -- 65
2018-03-26 22:00:00 10.2 6 Noroeste 17 Noroeste 0 -- -- 62
2018-03-26 21:00:00 10.5 10 Oeste 21 Oeste 0 -- -- 54
2018-03-26 20:00:00 12.1 16 Oeste 25 Noroeste 0 -- -- 46
2018-03-26 19:00:00 12.6 14 Oeste 26 Oeste 0 -- -- 42
2018-03-26 18:00:00 12.5 11 Oeste 23 Oeste 0 -- -- 40
2018-03-26 17:00:00 11.7 12 Noroeste 22 Noroeste 0 -- -- 43
2018-03-26 16:00:00 10.7 14 Noroeste 23 Noroeste 0 -- -- 45
2018-03-26 15:00:00 9.9 10 Oeste 22 Oeste 0 -- -- 45
2018-03-26 14:00:00 8.7 6 Norte 20 Norte 0 -- -- 51
2018-03-26 13:00:00 7.1 4 Este 14 Norte 0 -- -- 58
2018-03-26 12:00:00 6 8 Nordeste 20 Norte 0 -- -- 57
2018-03-26 11:00:00 4.9 8 Norte 14 Norte 0 -- -- 62
2018-03-26 10:00:00 2.1 6 Sudoeste 8 Sudoeste 0 -- -- 77
2018-03-26 09:00:00 -0.6 5 Sudoeste 6 Sudoeste 0 -- -- 83
2018-03-26 08:00:00 -0.6 3 Sudoeste 5 Sudoeste 0 -- -- 80
2018-03-26 07:00:00 -0.1 0 Calma 9 Norte 0 -- -- 77
2018-03-26 06:00:00 0.7 0 Calma 5 Norte 0 -- -- 74
2018-03-26 05:00:00 1.3 0 Calma 9 Noroeste 0 -- -- 72
2018-03-26 04:00:00 1.5 5 Norte 14 Noroeste 0 -- -- 72
2018-03-26 03:00:00 1.6 9 Noroeste 13 Noroeste 0 -- -- 73
2018-03-26 02:00:00 1.8 3 Noroeste 13 Noroeste 0 -- -- 71
2018-03-26 01:00:00 2.4 6 Noroeste 17 Noroeste 0 -- -- 69
2018-03-26 00:00:00 3.1 5 Oeste 13 Noroeste 0 -- -- 64
2018-03-25 23:00:00 3.8 11 Norte 17 Norte 0 -- -- 63
2018-03-25 22:00:00 5.3 6 Oeste 12 Norte 0 -- -- 60
2018-03-25 21:00:00 6.4 7 Norte 24 Norte 0 -- -- 57
2018-03-25 20:00:00 9.1 21 Norte 28 Norte 0 -- -- 46
2018-03-25 19:00:00 8.9 12 Noroeste 43 Noroeste 0.2 -- -- 50
2018-03-25 18:00:00 9.7 14 Norte 41 Noroeste 0 -- -- 60
2018-03-25 17:00:00 9.9 15 Noroeste 27 Noroeste 0 -- -- 52
2018-03-25 16:00:00 10 16 Noroeste 32 Norte 0 -- -- 50
2018-03-25 15:00:00 10.3 15 Noroeste 34 Norte 0 -- -- 48
2018-03-25 14:00:00 9.3 18 Noroeste 30 Noroeste 0 -- -- 55
2018-03-25 13:00:00 8.6 21 Norte 31 Noroeste 0 -- -- 58
2018-03-25 12:00:00 7.3 17 Norte 25 Norte 0 -- -- 63
2018-03-25 11:00:00 5.5 16 Noroeste 24 Noroeste 0 -- -- 77
2018-03-25 10:00:00 3.5 15 Oeste 24 Oeste 0 -- -- 86
2018-03-25 09:00:00 2.8 12 Oeste 21 Oeste 0 -- -- 90
2018-03-25 08:00:00 2.6 8 Oeste 15 Oeste 0 -- -- 91
2018-03-25 07:00:00 2.7 9 Oeste 15 Sudoeste 0 -- -- 92
2018-03-25 06:00:00 2.8 11 Sudoeste 22 Sudoeste 0 -- -- 92
2018-03-25 05:00:00 2.8 17 Sudoeste 26 Oeste 0 -- -- 91
2018-03-25 03:00:00 3.5 24 Oeste 33 Oeste 0 -- -- 80
2018-03-25 01:00:00 3.7 21 Oeste 45 Oeste 0 -- -- 78
2018-03-25 00:00:00 3.9 28 Oeste 47 Oeste 0 -- -- 73
2018-03-24 23:00:00 4.4 26 Oeste 45 Oeste 0 -- -- 70
2018-03-24 22:00:00 4.7 29 Oeste 55 Oeste 0 -- -- 70
2018-03-24 21:00:00 5.2 32 Oeste 52 Oeste 0 -- -- 65
2018-03-24 20:00:00 5.6 32 Oeste 55 Oeste 0 -- -- 66
2018-03-24 19:00:00 6.2 33 Oeste 54 Oeste 0 -- -- 67
2018-03-24 18:00:00 7.1 37 Oeste 67 Oeste 0 -- -- 66
2018-03-24 17:00:00 8.3 43 Oeste 66 Oeste 0 -- -- 60
2018-03-24 16:00:00 8.5 44 Oeste 76 Oeste 0 -- -- 63
2018-03-24 15:00:00 8 49 Oeste 76 Noroeste 0 -- -- 65
2018-03-24 14:00:00 8.2 53 Oeste 79 Oeste 0 -- -- 61
2018-03-24 13:00:00 7.4 48 Oeste 76 Oeste 0 -- -- 64
2018-03-24 12:00:00 6.6 49 Oeste 76 Oeste 0 -- -- 66
2018-03-24 11:00:00 5.6 46 Oeste 74 Oeste 0 -- -- 72
2018-03-24 10:00:00 4 40 Oeste 62 Oeste 0 -- -- 77
2018-03-24 09:00:00 2.5 38 Oeste 57 Oeste 0 -- -- 82
2018-03-24 08:00:00 1.4 31 Oeste 52 Oeste 0 -- -- 84
2018-03-24 07:00:00 1 31 Oeste 51 Oeste 0 -- -- 86
2018-03-24 06:00:00 1.2 30 Oeste 47 Oeste 0 -- -- 83
2018-03-24 05:00:00 1.3 30 Oeste 51 Noroeste 0 -- -- 84
2018-03-24 04:00:00 1.4 26 Oeste 48 Oeste 0 -- -- 85
2018-03-24 03:00:00 1.8 24 Oeste 45 Oeste 0 -- -- 84
2018-03-24 02:00:00 2.3 32 Oeste 52 Oeste 0 -- -- 83
2018-03-24 01:00:00 2.7 33 Oeste 51 Noroeste 0 -- -- 85
2018-03-24 00:00:00 2.9 28 Oeste 58 Oeste 0 -- -- 86
2018-03-23 23:00:00 3 33 Noroeste 86 Oeste 1.8 -- -- 91
2018-03-23 22:00:00 7.2 37 Sudoeste 62 Sudoeste 0 -- -- 89
2018-03-23 21:00:00 7.6 37 Sudoeste 62 Sudoeste 0.2 -- -- 85
2018-03-23 20:00:00 8.7 41 Sudoeste 58 Sudoeste 0 -- -- 79
2018-03-23 19:00:00 9.5 35 Sudoeste 63 Oeste 0 -- -- 76
2018-03-23 18:00:00 9.9 43 Sudoeste 61 Sudoeste 0 -- -- 80
2018-03-23 17:00:00 10.7 32 Sudoeste 47 Sudoeste 0 -- -- 80
2018-03-23 16:00:00 11.3 28 Sudoeste 40 Oeste 0 -- -- 80
2018-03-23 15:00:00 9.5 24 Sudoeste 42 Sudoeste 0 -- -- 91
2018-03-23 14:00:00 9.1 27 Oeste 40 Sudoeste 0 -- -- 92
2018-03-23 13:00:00 8.6 30 Oeste 41 Oeste 0 -- -- 90
2018-03-23 12:00:00 7.8 27 Sudoeste 41 Sudoeste 0 -- -- 92
2018-03-23 11:00:00 6.5 21 Sudoeste 31 Sudoeste 0 -- -- 93
2018-03-23 10:00:00 5.4 22 Sudoeste 30 Oeste 0 -- -- 94
2018-03-23 09:00:00 4.6 17 Sudoeste 31 Oeste 0 -- -- 91
2018-03-23 08:00:00 4.3 23 Oeste 41 Oeste 0 -- -- 87
2018-03-23 07:00:00 4.3 22 Oeste 32 Oeste 0 -- -- 83
2018-03-23 06:00:00 4.1 19 Sudoeste 37 Oeste 0 -- -- 85
2018-03-23 05:00:00 4 14 Sudoeste 29 Sudoeste 0 -- -- 88
2018-03-23 04:00:00 4 16 Sudoeste 30 Sudoeste 0 -- -- 89
2018-03-23 03:00:00 3.7 19 Sudoeste 28 Sudoeste 0 -- -- 83
2018-03-23 02:00:00 3.5 15 Sudoeste 23 Sudoeste 0 -- -- 74
2018-03-23 01:00:00 3.7 12 Sudoeste 21 Sudoeste 0 -- -- 74
2018-03-23 00:00:00 3.4 16 Sudoeste 23 Sudoeste 0 -- -- 74